sensor_id;sensor_type;location;lat;lon;timestamp;P1;durP1;ratioP1;P2;durP2;ratioP2
81036;SDS011;70521;47.468;19.306;2024-01-11T00:01:28;70.30;;;66.18;;
81036;SDS011;70521;47.468;19.306;2024-01-11T00:04:29;81.90;;;77.55;;
81036;SDS011;70521;47.468;19.306;2024-01-11T00:07:30;63.78;;;59.70;;
81036;SDS011;70521;47.468;19.306;2024-01-11T00:10:31;77.78;;;73.05;;
81036;SDS011;70521;47.468;19.306;2024-01-11T00:13:32;85.70;;;81.20;;
81036;SDS011;70521;47.468;19.306;2024-01-11T00:16:33;63.20;;;58.85;;
81036;SDS011;70521;47.468;19.306;2024-01-11T00:19:34;65.88;;;60.95;;
81036;SDS011;70521;47.468;19.306;2024-01-11T00:22:35;73.35;;;68.80;;
81036;SDS011;70521;47.468;19.306;2024-01-11T00:25:36;64.22;;;59.90;;
81036;SDS011;70521;47.468;19.306;2024-01-11T00:28:37;75.47;;;70.72;;
81036;SDS011;70521;47.468;19.306;2024-01-11T00:31:37;73.30;;;68.72;;
81036;SDS011;70521;47.468;19.306;2024-01-11T00:34:39;77.85;;;73.28;;
81036;SDS011;70521;47.468;19.306;2024-01-11T00:37:40;64.22;;;59.58;;
81036;SDS011;70521;47.468;19.306;2024-01-11T00:40:41;92.03;;;86.68;;
81036;SDS011;70521;47.468;19.306;2024-01-11T00:43:43;82.13;;;76.50;;
81036;SDS011;70521;47.468;19.306;2024-01-11T00:46:44;74.65;;;69.43;;
81036;SDS011;70521;47.468;19.306;2024-01-11T00:49:45;93.63;;;88.53;;
81036;SDS011;70521;47.468;19.306;2024-01-11T00:52:46;84.88;;;79.38;;
81036;SDS011;70521;47.468;19.306;2024-01-11T00:55:47;89.35;;;83.03;;
81036;SDS011;70521;47.468;19.306;2024-01-11T00:58:48;75.57;;;70.13;;
81036;SDS011;70521;47.468;19.306;2024-01-11T01:01:49;76.85;;;71.40;;
81036;SDS011;70521;47.468;19.306;2024-01-11T01:04:50;76.40;;;71.18;;
81036;SDS011;70521;47.468;19.306;2024-01-11T01:07:51;102.65;;;96.00;;
81036;SDS011;70521;47.468;19.306;2024-01-11T01:10:53;80.90;;;75.07;;
81036;SDS011;70521;47.468;19.306;2024-01-11T01:13:54;93.40;;;87.75;;
81036;SDS011;70521;47.468;19.306;2024-01-11T01:16:55;82.22;;;76.28;;
81036;SDS011;70521;47.468;19.306;2024-01-11T01:19:57;74.40;;;68.65;;
81036;SDS011;70521;47.468;19.306;2024-01-11T01:22:58;88.55;;;82.45;;
81036;SDS011;70521;47.468;19.306;2024-01-11T01:25:59;81.95;;;76.20;;
81036;SDS011;70521;47.468;19.306;2024-01-11T01:29:00;78.80;;;72.97;;
81036;SDS011;70521;47.468;19.306;2024-01-11T01:32:01;79.93;;;74.10;;
81036;SDS011;70521;47.468;19.306;2024-01-11T01:35:02;103.20;;;97.07;;
81036;SDS011;70521;47.468;19.306;2024-01-11T01:38:04;84.00;;;78.20;;
81036;SDS011;70521;47.468;19.306;2024-01-11T01:41:05;83.45;;;76.53;;
81036;SDS011;70521;47.468;19.306;2024-01-11T01:44:06;76.13;;;71.00;;
81036;SDS011;70521;47.468;19.306;2024-01-11T01:47:07;69.43;;;64.10;;
81036;SDS011;70521;47.468;19.306;2024-01-11T01:50:10;62.40;;;57.45;;
81036;SDS011;70521;47.468;19.306;2024-01-11T01:53:11;73.05;;;67.90;;
81036;SDS011;70521;47.468;19.306;2024-01-11T01:56:12;91.90;;;87.25;;
81036;SDS011;70521;47.468;19.306;2024-01-11T01:59:13;73.18;;;67.95;;
81036;SDS011;70521;47.468;19.306;2024-01-11T02:02:15;77.57;;;72.15;;
81036;SDS011;70521;47.468;19.306;2024-01-11T02:05:16;77.28;;;71.18;;
81036;SDS011;70521;47.468;19.306;2024-01-11T02:08:18;90.18;;;84.18;;
81036;SDS011;70521;47.468;19.306;2024-01-11T02:11:20;84.07;;;78.30;;
81036;SDS011;70521;47.468;19.306;2024-01-11T02:14:22;127.72;;;121.32;;
81036;SDS011;70521;47.468;19.306;2024-01-11T02:17:23;90.10;;;83.55;;
81036;SDS011;70521;47.468;19.306;2024-01-11T02:20:24;73.72;;;68.88;;
81036;SDS011;70521;47.468;19.306;2024-01-11T02:23:25;73.03;;;67.55;;
81036;SDS011;70521;47.468;19.306;2024-01-11T02:26:27;72.43;;;67.47;;
81036;SDS011;70521;47.468;19.306;2024-01-11T02:29:28;76.00;;;70.57;;
81036;SDS011;70521;47.468;19.306;2024-01-11T02:32:29;85.28;;;79.35;;
81036;SDS011;70521;47.468;19.306;2024-01-11T02:35:30;84.07;;;78.47;;
81036;SDS011;70521;47.468;19.306;2024-01-11T02:41:33;74.47;;;70.00;;
81036;SDS011;70521;47.468;19.306;2024-01-11T02:44:34;95.28;;;90.00;;
81036;SDS011;70521;47.468;19.306;2024-01-11T02:47:37;72.40;;;67.47;;
81036;SDS011;70521;47.468;19.306;2024-01-11T02:53:39;73.15;;;68.72;;
81036;SDS011;70521;47.468;19.306;2024-01-11T02:56:40;69.15;;;64.80;;
81036;SDS011;70521;47.468;19.306;2024-01-11T02:59:42;72.93;;;67.63;;
81036;SDS011;70521;47.468;19.306;2024-01-11T03:02:43;73.80;;;69.40;;
81036;SDS011;70521;47.468;19.306;2024-01-11T03:05:44;61.80;;;57.53;;
81036;SDS011;70521;47.468;19.306;2024-01-11T03:08:45;63.28;;;59.03;;
81036;SDS011;70521;47.468;19.306;2024-01-11T03:11:46;81.47;;;76.45;;
81036;SDS011;70521;47.468;19.306;2024-01-11T03:14:47;64.65;;;59.95;;
81036;SDS011;70521;47.468;19.306;2024-01-11T03:20:49;62.13;;;58.00;;
81036;SDS011;70521;47.468;19.306;2024-01-11T03:23:50;66.22;;;61.75;;
81036;SDS011;70521;47.468;19.306;2024-01-11T03:26:51;60.85;;;57.00;;
81036;SDS011;70521;47.468;19.306;2024-01-11T03:29:52;69.38;;;64.82;;
81036;SDS011;70521;47.468;19.306;2024-01-11T03:32:53;75.25;;;70.78;;
81036;SDS011;70521;47.468;19.306;2024-01-11T03:35:53;66.82;;;62.75;;
81036;SDS011;70521;47.468;19.306;2024-01-11T03:38:54;61.58;;;57.10;;
81036;SDS011;70521;47.468;19.306;2024-01-11T03:41:55;66.22;;;61.72;;
81036;SDS011;70521;47.468;19.306;2024-01-11T03:44:56;67.88;;;63.50;;
81036;SDS011;70521;47.468;19.306;2024-01-11T03:47:57;79.60;;;75.05;;
81036;SDS011;70521;47.468;19.306;2024-01-11T03:50:58;66.45;;;62.58;;
81036;SDS011;70521;47.468;19.306;2024-01-11T03:53:59;74.45;;;70.25;;
81036;SDS011;70521;47.468;19.306;2024-01-11T04:00:01;65.20;;;61.65;;
81036;SDS011;70521;47.468;19.306;2024-01-11T04:03:06;62.28;;;58.42;;
81036;SDS011;70521;47.468;19.306;2024-01-11T04:06:07;61.92;;;57.95;;
81036;SDS011;70521;47.468;19.306;2024-01-11T04:09:08;67.25;;;62.80;;
81036;SDS011;70521;47.468;19.306;2024-01-11T04:12:09;78.38;;;73.85;;
81036;SDS011;70521;47.468;19.306;2024-01-11T04:15:13;80.78;;;76.18;;
81036;SDS011;70521;47.468;19.306;2024-01-11T04:18:14;76.32;;;72.05;;
81036;SDS011;70521;47.468;19.306;2024-01-11T04:27:23;58.50;;;55.15;;
81036;SDS011;70521;47.468;19.306;2024-01-11T04:30:24;67.82;;;64.05;;
81036;SDS011;70521;47.468;19.306;2024-01-11T04:36:26;65.35;;;61.42;;
81036;SDS011;70521;47.468;19.306;2024-01-11T04:39:27;63.90;;;60.08;;
81036;SDS011;70521;47.468;19.306;2024-01-11T04:42:28;74.10;;;69.60;;
81036;SDS011;70521;47.468;19.306;2024-01-11T04:45:29;54.85;;;51.15;;
81036;SDS011;70521;47.468;19.306;2024-01-11T04:48:30;74.03;;;69.15;;
81036;SDS011;70521;47.468;19.306;2024-01-11T04:51:31;58.95;;;54.35;;
81036;SDS011;70521;47.468;19.306;2024-01-11T04:54:32;64.78;;;60.63;;
81036;SDS011;70521;47.468;19.306;2024-01-11T04:57:33;67.05;;;62.53;;
81036;SDS011;70521;47.468;19.306;2024-01-11T05:00:34;78.55;;;73.32;;
81036;SDS011;70521;47.468;19.306;2024-01-11T05:06:36;74.07;;;70.20;;
81036;SDS011;70521;47.468;19.306;2024-01-11T05:09:37;56.33;;;51.92;;
81036;SDS011;70521;47.468;19.306;2024-01-11T05:15:39;124.90;;;119.68;;
81036;SDS011;70521;47.468;19.306;2024-01-11T05:18:40;65.00;;;59.60;;
81036;SDS011;70521;47.468;19.306;2024-01-11T05:21:41;75.13;;;69.85;;
81036;SDS011;70521;47.468;19.306;2024-01-11T05:24:42;83.45;;;77.53;;
81036;SDS011;70521;47.468;19.306;2024-01-11T05:27:43;71.63;;;66.30;;
81036;SDS011;70521;47.468;19.306;2024-01-11T05:30:44;78.57;;;73.00;;
81036;SDS011;70521;47.468;19.306;2024-01-11T05:36:47;67.57;;;62.85;;
81036;SDS011;70521;47.468;19.306;2024-01-11T05:39:47;77.25;;;72.60;;
81036;SDS011;70521;47.468;19.306;2024-01-11T05:42:48;64.22;;;59.63;;
81036;SDS011;70521;47.468;19.306;2024-01-11T05:45:50;82.35;;;77.18;;
81036;SDS011;70521;47.468;19.306;2024-01-11T05:51:51;64.30;;;60.17;;
81036;SDS011;70521;47.468;19.306;2024-01-11T05:54:52;68.00;;;63.35;;
81036;SDS011;70521;47.468;19.306;2024-01-11T05:57:53;85.20;;;80.10;;
81036;SDS011;70521;47.468;19.306;2024-01-11T06:00:55;57.22;;;53.33;;
81036;SDS011;70521;47.468;19.306;2024-01-11T06:03:58;81.88;;;77.45;;
81036;SDS011;70521;47.468;19.306;2024-01-11T06:06:59;57.22;;;52.85;;
81036;SDS011;70521;47.468;19.306;2024-01-11T06:13:03;77.32;;;72.13;;
81036;SDS011;70521;47.468;19.306;2024-01-11T06:19:05;79.13;;;74.80;;
81036;SDS011;70521;47.468;19.306;2024-01-11T06:22:08;57.92;;;53.90;;
81036;SDS011;70521;47.468;19.306;2024-01-11T06:25:09;68.68;;;64.35;;
81036;SDS011;70521;47.468;19.306;2024-01-11T06:28:10;69.35;;;65.18;;
81036;SDS011;70521;47.468;19.306;2024-01-11T06:31:11;71.28;;;67.30;;
81036;SDS011;70521;47.468;19.306;2024-01-11T06:34:12;62.88;;;58.22;;
81036;SDS011;70521;47.468;19.306;2024-01-11T06:37:13;66.47;;;62.05;;
81036;SDS011;70521;47.468;19.306;2024-01-11T06:40:14;66.93;;;62.28;;
81036;SDS011;70521;47.468;19.306;2024-01-11T06:46:20;70.25;;;65.65;;
81036;SDS011;70521;47.468;19.306;2024-01-11T06:49:21;67.78;;;63.22;;
81036;SDS011;70521;47.468;19.306;2024-01-11T06:52:22;73.40;;;68.75;;
81036;SDS011;70521;47.468;19.306;2024-01-11T06:55:24;65.85;;;61.60;;
81036;SDS011;70521;47.468;19.306;2024-01-11T06:58:25;91.45;;;86.25;;
81036;SDS011;70521;47.468;19.306;2024-01-11T07:01:25;54.75;;;50.88;;
81036;SDS011;70521;47.468;19.306;2024-01-11T07:07:27;82.22;;;77.88;;
81036;SDS011;70521;47.468;19.306;2024-01-11T07:10:28;55.33;;;51.58;;
81036;SDS011;70521;47.468;19.306;2024-01-11T07:13:30;62.42;;;58.30;;
81036;SDS011;70521;47.468;19.306;2024-01-11T07:16:31;63.08;;;58.85;;
81036;SDS011;70521;47.468;19.306;2024-01-11T07:19:32;62.08;;;57.90;;
81036;SDS011;70521;47.468;19.306;2024-01-11T07:22:33;55.38;;;51.28;;
81036;SDS011;70521;47.468;19.306;2024-01-11T07:28:35;55.53;;;51.28;;
81036;SDS011;70521;47.468;19.306;2024-01-11T07:31:37;63.00;;;59.38;;
81036;SDS011;70521;47.468;19.306;2024-01-11T07:34:38;58.78;;;54.33;;
81036;SDS011;70521;47.468;19.306;2024-01-11T07:37:39;57.80;;;53.65;;
81036;SDS011;70521;47.468;19.306;2024-01-11T07:40:40;55.75;;;51.38;;
81036;SDS011;70521;47.468;19.306;2024-01-11T07:46:42;51.63;;;47.67;;
81036;SDS011;70521;47.468;19.306;2024-01-11T07:49:43;61.65;;;56.80;;
81036;SDS011;70521;47.468;19.306;2024-01-11T07:55:46;64.93;;;60.42;;
81036;SDS011;70521;47.468;19.306;2024-01-11T07:58:48;54.45;;;50.15;;
81036;SDS011;70521;47.468;19.306;2024-01-11T08:04:50;60.88;;;56.05;;
81036;SDS011;70521;47.468;19.306;2024-01-11T08:10:52;44.80;;;40.83;;
81036;SDS011;70521;47.468;19.306;2024-01-11T08:13:53;52.88;;;48.05;;
81036;SDS011;70521;47.468;19.306;2024-01-11T08:16:55;51.25;;;46.28;;
81036;SDS011;70521;47.468;19.306;2024-01-11T08:19:59;59.80;;;54.33;;
81036;SDS011;70521;47.468;19.306;2024-01-11T08:23:01;55.90;;;50.40;;
81036;SDS011;70521;47.468;19.306;2024-01-11T08:26:02;55.72;;;50.40;;
81036;SDS011;70521;47.468;19.306;2024-01-11T08:29:03;49.00;;;44.38;;
81036;SDS011;70521;47.468;19.306;2024-01-11T08:32:05;60.03;;;54.80;;
81036;SDS011;70521;47.468;19.306;2024-01-11T08:35:09;64.68;;;59.10;;
81036;SDS011;70521;47.468;19.306;2024-01-11T08:38:10;52.30;;;46.95;;
81036;SDS011;70521;47.468;19.306;2024-01-11T08:41:12;52.78;;;47.85;;
81036;SDS011;70521;47.468;19.306;2024-01-11T08:44:13;45.80;;;41.28;;
81036;SDS011;70521;47.468;19.306;2024-01-11T08:47:14;41.90;;;37.78;;
81036;SDS011;70521;47.468;19.306;2024-01-11T08:50:15;45.67;;;40.78;;
81036;SDS011;70521;47.468;19.306;2024-01-11T08:53:16;46.03;;;41.70;;
81036;SDS011;70521;47.468;19.306;2024-01-11T08:56:18;49.92;;;44.75;;
81036;SDS011;70521;47.468;19.306;2024-01-11T08:59:19;49.63;;;44.72;;
81036;SDS011;70521;47.468;19.306;2024-01-11T09:02:20;51.55;;;46.13;;
81036;SDS011;70521;47.468;19.306;2024-01-11T09:05:21;48.95;;;43.88;;
81036;SDS011;70521;47.468;19.306;2024-01-11T09:08:22;53.15;;;47.85;;
81036;SDS011;70521;47.468;19.306;2024-01-11T09:11:23;53.80;;;48.13;;
81036;SDS011;70521;47.468;19.306;2024-01-11T09:14:24;55.63;;;48.60;;
81036;SDS011;70521;47.468;19.306;2024-01-11T09:17:25;58.10;;;52.22;;
81036;SDS011;70521;47.468;19.306;2024-01-11T09:20:26;59.85;;;53.70;;
81036;SDS011;70521;47.468;19.306;2024-01-11T09:23:27;57.78;;;48.72;;
81036;SDS011;70521;47.468;19.306;2024-01-11T09:26:28;57.83;;;51.70;;
81036;SDS011;70521;47.468;19.306;2024-01-11T09:29:29;53.83;;;48.63;;
81036;SDS011;70521;47.468;19.306;2024-01-11T09:32:30;51.92;;;46.42;;
81036;SDS011;70521;47.468;19.306;2024-01-11T09:35:32;61.25;;;54.70;;
81036;SDS011;70521;47.468;19.306;2024-01-11T09:38:33;68.95;;;61.72;;
81036;SDS011;70521;47.468;19.306;2024-01-11T09:41:35;75.00;;;66.88;;
81036;SDS011;70521;47.468;19.306;2024-01-11T09:44:37;73.55;;;66.03;;
81036;SDS011;70521;47.468;19.306;2024-01-11T09:47:39;65.68;;;59.03;;
81036;SDS011;70521;47.468;19.306;2024-01-11T09:50:40;65.38;;;58.65;;
81036;SDS011;70521;47.468;19.306;2024-01-11T09:53:43;73.50;;;67.18;;
81036;SDS011;70521;47.468;19.306;2024-01-11T09:56:44;54.95;;;49.75;;
81036;SDS011;70521;47.468;19.306;2024-01-11T09:59:45;67.68;;;61.47;;
81036;SDS011;70521;47.468;19.306;2024-01-11T10:02:46;68.65;;;62.58;;
81036;SDS011;70521;47.468;19.306;2024-01-11T10:05:47;60.38;;;55.05;;
81036;SDS011;70521;47.468;19.306;2024-01-11T10:08:49;61.22;;;56.42;;
81036;SDS011;70521;47.468;19.306;2024-01-11T10:11:50;44.35;;;39.72;;
81036;SDS011;70521;47.468;19.306;2024-01-11T10:14:54;52.22;;;47.90;;
81036;SDS011;70521;47.468;19.306;2024-01-11T10:17:55;55.38;;;50.70;;
81036;SDS011;70521;47.468;19.306;2024-01-11T10:20:57;54.13;;;49.47;;
81036;SDS011;70521;47.468;19.306;2024-01-11T10:23:58;50.33;;;45.97;;
81036;SDS011;70521;47.468;19.306;2024-01-11T10:27:00;49.60;;;45.40;;
81036;SDS011;70521;47.468;19.306;2024-01-11T10:30:04;40.28;;;36.15;;
81036;SDS011;70521;47.468;19.306;2024-01-11T10:33:08;33.28;;;30.58;;
81036;SDS011;70521;47.468;19.306;2024-01-11T10:36:09;53.38;;;49.55;;
81036;SDS011;70521;47.468;19.306;2024-01-11T10:39:12;45.22;;;42.45;;
81036;SDS011;70521;47.468;19.306;2024-01-11T10:42:14;32.80;;;30.20;;
81036;SDS011;70521;47.468;19.306;2024-01-11T10:45:19;50.42;;;46.97;;
81036;SDS011;70521;47.468;19.306;2024-01-11T10:48:20;41.72;;;38.70;;
81036;SDS011;70521;47.468;19.306;2024-01-11T10:51:22;29.20;;;27.05;;
81036;SDS011;70521;47.468;19.306;2024-01-11T10:54:23;44.85;;;41.25;;
81036;SDS011;70521;47.468;19.306;2024-01-11T10:57:24;37.42;;;34.95;;
81036;SDS011;70521;47.468;19.306;2024-01-11T11:00:26;39.20;;;36.22;;
81036;SDS011;70521;47.468;19.306;2024-01-11T11:03:27;43.83;;;40.42;;
81036;SDS011;70521;47.468;19.306;2024-01-11T11:06:29;28.65;;;26.15;;
81036;SDS011;70521;47.468;19.306;2024-01-11T11:09:31;23.95;;;22.40;;
81036;SDS011;70521;47.468;19.306;2024-01-11T11:12:33;26.60;;;24.30;;
81036;SDS011;70521;47.468;19.306;2024-01-11T11:15:35;28.05;;;25.52;;
81036;SDS011;70521;47.468;19.306;2024-01-11T11:18:37;27.67;;;25.35;;
81036;SDS011;70521;47.468;19.306;2024-01-11T11:21:45;27.90;;;25.75;;
81036;SDS011;70521;47.468;19.306;2024-01-11T11:24:46;29.13;;;26.77;;
81036;SDS011;70521;47.468;19.306;2024-01-11T11:27:46;23.50;;;21.55;;
81036;SDS011;70521;47.468;19.306;2024-01-11T11:30:48;25.05;;;23.40;;
81036;SDS011;70521;47.468;19.306;2024-01-11T11:33:49;37.15;;;34.95;;
81036;SDS011;70521;47.468;19.306;2024-01-11T11:36:50;29.85;;;27.67;;
81036;SDS011;70521;47.468;19.306;2024-01-11T11:39:55;25.90;;;24.27;;
81036;SDS011;70521;47.468;19.306;2024-01-11T11:42:58;25.73;;;24.05;;
81036;SDS011;70521;47.468;19.306;2024-01-11T11:45:58;29.80;;;27.60;;
81036;SDS011;70521;47.468;19.306;2024-01-11T11:49:08;25.30;;;23.25;;
81036;SDS011;70521;47.468;19.306;2024-01-11T11:52:14;23.63;;;21.85;;
81036;SDS011;70521;47.468;19.306;2024-01-11T11:55:15;35.50;;;33.25;;
81036;SDS011;70521;47.468;19.306;2024-01-11T11:58:18;36.10;;;33.67;;
81036;SDS011;70521;47.468;19.306;2024-01-11T12:01:19;32.78;;;30.83;;
81036;SDS011;70521;47.468;19.306;2024-01-11T12:04:20;31.75;;;29.83;;
81036;SDS011;70521;47.468;19.306;2024-01-11T12:07:22;23.30;;;21.70;;
81036;SDS011;70521;47.468;19.306;2024-01-11T12:10:23;25.02;;;23.08;;
81036;SDS011;70521;47.468;19.306;2024-01-11T12:13:24;34.53;;;32.45;;
81036;SDS011;70521;47.468;19.306;2024-01-11T12:16:25;35.65;;;33.25;;
81036;SDS011;70521;47.468;19.306;2024-01-11T12:19:27;24.20;;;22.63;;
81036;SDS011;70521;47.468;19.306;2024-01-11T12:22:28;23.27;;;21.77;;
81036;SDS011;70521;47.468;19.306;2024-01-11T12:25:29;28.02;;;26.02;;
81036;SDS011;70521;47.468;19.306;2024-01-11T12:28:31;34.00;;;31.83;;
81036;SDS011;70521;47.468;19.306;2024-01-11T12:31:31;33.35;;;31.35;;
81036;SDS011;70521;47.468;19.306;2024-01-11T12:34:33;24.05;;;22.67;;
81036;SDS011;70521;47.468;19.306;2024-01-11T12:37:33;31.98;;;29.90;;
81036;SDS011;70521;47.468;19.306;2024-01-11T12:40:35;20.75;;;19.45;;
81036;SDS011;70521;47.468;19.306;2024-01-11T12:43:38;32.83;;;30.48;;
81036;SDS011;70521;47.468;19.306;2024-01-11T12:46:39;33.53;;;31.02;;
81036;SDS011;70521;47.468;19.306;2024-01-11T12:49:43;29.30;;;27.63;;
81036;SDS011;70521;47.468;19.306;2024-01-11T12:52:44;26.85;;;25.05;;
81036;SDS011;70521;47.468;19.306;2024-01-11T12:55:45;30.50;;;28.38;;
81036;SDS011;70521;47.468;19.306;2024-01-11T12:58:46;32.42;;;30.05;;
81036;SDS011;70521;47.468;19.306;2024-01-11T13:01:48;42.08;;;39.47;;
81036;SDS011;70521;47.468;19.306;2024-01-11T13:04:50;34.88;;;32.78;;
81036;SDS011;70521;47.468;19.306;2024-01-11T13:07:51;39.67;;;37.13;;
81036;SDS011;70521;47.468;19.306;2024-01-11T13:10:53;42.88;;;40.65;;
81036;SDS011;70521;47.468;19.306;2024-01-11T13:13:54;26.00;;;24.38;;
81036;SDS011;70521;47.468;19.306;2024-01-11T13:16:55;21.67;;;20.40;;
81036;SDS011;70521;47.468;19.306;2024-01-11T13:19:56;39.92;;;37.60;;
81036;SDS011;70521;47.468;19.306;2024-01-11T13:26:16;25.65;;;23.77;;
81036;SDS011;70521;47.468;19.306;2024-01-11T13:29:18;21.60;;;20.35;;
81036;SDS011;70521;47.468;19.306;2024-01-11T13:32:19;21.95;;;20.40;;
81036;SDS011;70521;47.468;19.306;2024-01-11T13:35:23;28.85;;;26.67;;
81036;SDS011;70521;47.468;19.306;2024-01-11T13:38:24;18.90;;;17.60;;
81036;SDS011;70521;47.468;19.306;2024-01-11T13:41:25;25.95;;;24.23;;
81036;SDS011;70521;47.468;19.306;2024-01-11T13:44:26;31.95;;;29.95;;
81036;SDS011;70521;47.468;19.306;2024-01-11T13:47:27;32.17;;;30.35;;
81036;SDS011;70521;47.468;19.306;2024-01-11T13:50:28;24.63;;;22.90;;
81036;SDS011;70521;47.468;19.306;2024-01-11T13:53:29;26.90;;;25.55;;
81036;SDS011;70521;47.468;19.306;2024-01-11T13:56:31;21.85;;;20.15;;
81036;SDS011;70521;47.468;19.306;2024-01-11T13:59:32;33.42;;;31.13;;
81036;SDS011;70521;47.468;19.306;2024-01-11T14:02:34;30.17;;;28.30;;
81036;SDS011;70521;47.468;19.306;2024-01-11T14:05:36;27.45;;;25.48;;
81036;SDS011;70521;47.468;19.306;2024-01-11T14:08:38;31.77;;;29.40;;
81036;SDS011;70521;47.468;19.306;2024-01-11T14:11:39;48.47;;;46.17;;
81036;SDS011;70521;47.468;19.306;2024-01-11T14:14:40;29.00;;;26.83;;
81036;SDS011;70521;47.468;19.306;2024-01-11T14:17:41;29.35;;;27.23;;
81036;SDS011;70521;47.468;19.306;2024-01-11T14:20:42;28.45;;;26.63;;
81036;SDS011;70521;47.468;19.306;2024-01-11T14:23:43;27.48;;;25.73;;
81036;SDS011;70521;47.468;19.306;2024-01-11T14:26:44;33.28;;;30.75;;
81036;SDS011;70521;47.468;19.306;2024-01-11T14:29:45;30.98;;;28.75;;
81036;SDS011;70521;47.468;19.306;2024-01-11T14:32:47;33.30;;;30.42;;
81036;SDS011;70521;47.468;19.306;2024-01-11T14:35:48;30.40;;;28.80;;
81036;SDS011;70521;47.468;19.306;2024-01-11T14:38:49;38.58;;;34.95;;
81036;SDS011;70521;47.468;19.306;2024-01-11T14:41:54;31.77;;;29.25;;
81036;SDS011;70521;47.468;19.306;2024-01-11T14:44:55;32.72;;;30.08;;
81036;SDS011;70521;47.468;19.306;2024-01-11T14:47:56;43.60;;;40.28;;
81036;SDS011;70521;47.468;19.306;2024-01-11T14:50:59;34.97;;;32.08;;
81036;SDS011;70521;47.468;19.306;2024-01-11T14:54:00;32.33;;;29.80;;
81036;SDS011;70521;47.468;19.306;2024-01-11T14:57:00;36.35;;;33.30;;
81036;SDS011;70521;47.468;19.306;2024-01-11T15:00:01;34.03;;;30.92;;
81036;SDS011;70521;47.468;19.306;2024-01-11T15:03:03;25.98;;;23.63;;
81036;SDS011;70521;47.468;19.306;2024-01-11T15:06:05;46.80;;;43.00;;
81036;SDS011;70521;47.468;19.306;2024-01-11T15:09:06;36.13;;;33.42;;
81036;SDS011;70521;47.468;19.306;2024-01-11T15:12:10;40.88;;;37.25;;
81036;SDS011;70521;47.468;19.306;2024-01-11T15:15:11;28.10;;;26.20;;
81036;SDS011;70521;47.468;19.306;2024-01-11T15:18:12;50.33;;;46.25;;
81036;SDS011;70521;47.468;19.306;2024-01-11T15:21:12;34.83;;;32.50;;
81036;SDS011;70521;47.468;19.306;2024-01-11T15:24:13;41.15;;;38.53;;
81036;SDS011;70521;47.468;19.306;2024-01-11T15:27:14;32.60;;;30.35;;
81036;SDS011;70521;47.468;19.306;2024-01-11T15:30:16;45.83;;;42.58;;
81036;SDS011;70521;47.468;19.306;2024-01-11T15:33:17;42.67;;;39.85;;
81036;SDS011;70521;47.468;19.306;2024-01-11T15:36:18;37.38;;;34.85;;
81036;SDS011;70521;47.468;19.306;2024-01-11T15:39:19;38.92;;;36.30;;
81036;SDS011;70521;47.468;19.306;2024-01-11T15:42:20;35.03;;;31.90;;
81036;SDS011;70521;47.468;19.306;2024-01-11T15:45:22;37.25;;;34.47;;
81036;SDS011;70521;47.468;19.306;2024-01-11T15:48:22;35.63;;;32.97;;
81036;SDS011;70521;47.468;19.306;2024-01-11T15:51:25;36.80;;;34.70;;
81036;SDS011;70521;47.468;19.306;2024-01-11T15:54:26;44.35;;;41.45;;
81036;SDS011;70521;47.468;19.306;2024-01-11T15:57:27;33.22;;;31.02;;
81036;SDS011;70521;47.468;19.306;2024-01-11T16:00:28;41.33;;;38.30;;
81036;SDS011;70521;47.468;19.306;2024-01-11T16:03:29;42.45;;;39.40;;
81036;SDS011;70521;47.468;19.306;2024-01-11T16:06:31;42.47;;;39.47;;
81036;SDS011;70521;47.468;19.306;2024-01-11T16:09:31;42.40;;;39.10;;
81036;SDS011;70521;47.468;19.306;2024-01-11T16:12:33;52.83;;;49.15;;
81036;SDS011;70521;47.468;19.306;2024-01-11T16:15:33;30.42;;;28.17;;
81036;SDS011;70521;47.468;19.306;2024-01-11T16:18:36;48.83;;;44.80;;
81036;SDS011;70521;47.468;19.306;2024-01-11T16:21:38;33.28;;;30.95;;
81036;SDS011;70521;47.468;19.306;2024-01-11T16:24:39;44.33;;;40.80;;
81036;SDS011;70521;47.468;19.306;2024-01-11T16:27:42;40.83;;;37.78;;
81036;SDS011;70521;47.468;19.306;2024-01-11T16:30:42;37.85;;;35.17;;
81036;SDS011;70521;47.468;19.306;2024-01-11T16:33:45;36.15;;;33.60;;
81036;SDS011;70521;47.468;19.306;2024-01-11T16:36:47;46.42;;;43.40;;
81036;SDS011;70521;47.468;19.306;2024-01-11T16:39:48;40.60;;;37.33;;
81036;SDS011;70521;47.468;19.306;2024-01-11T16:42:49;60.63;;;56.28;;
81036;SDS011;70521;47.468;19.306;2024-01-11T16:45:50;37.80;;;35.88;;
81036;SDS011;70521;47.468;19.306;2024-01-11T16:48:54;29.75;;;27.55;;
81036;SDS011;70521;47.468;19.306;2024-01-11T16:51:55;46.85;;;43.00;;
81036;SDS011;70521;47.468;19.306;2024-01-11T16:54:56;36.42;;;34.17;;
81036;SDS011;70521;47.468;19.306;2024-01-11T16:57:58;31.45;;;29.63;;
81036;SDS011;70521;47.468;19.306;2024-01-11T17:00:59;48.50;;;45.05;;
81036;SDS011;70521;47.468;19.306;2024-01-11T17:04:00;43.30;;;39.58;;
81036;SDS011;70521;47.468;19.306;2024-01-11T17:07:01;47.92;;;44.80;;
81036;SDS011;70521;47.468;19.306;2024-01-11T17:10:02;50.13;;;46.05;;
81036;SDS011;70521;47.468;19.306;2024-01-11T17:13:04;39.42;;;35.70;;
81036;SDS011;70521;47.468;19.306;2024-01-11T17:16:05;38.17;;;35.50;;
81036;SDS011;70521;47.468;19.306;2024-01-11T17:19:07;31.35;;;29.17;;
81036;SDS011;70521;47.468;19.306;2024-01-11T17:22:08;46.78;;;43.30;;
81036;SDS011;70521;47.468;19.306;2024-01-11T17:25:09;35.78;;;33.10;;
81036;SDS011;70521;47.468;19.306;2024-01-11T17:28:10;40.15;;;36.78;;
81036;SDS011;70521;47.468;19.306;2024-01-11T17:31:11;48.15;;;45.25;;
81036;SDS011;70521;47.468;19.306;2024-01-11T17:34:13;36.63;;;33.90;;
81036;SDS011;70521;47.468;19.306;2024-01-11T17:37:14;46.53;;;42.67;;
81036;SDS011;70521;47.468;19.306;2024-01-11T17:40:15;30.02;;;27.65;;
81036;SDS011;70521;47.468;19.306;2024-01-11T17:43:16;36.33;;;33.50;;
81036;SDS011;70521;47.468;19.306;2024-01-11T17:46:20;38.40;;;35.40;;
81036;SDS011;70521;47.468;19.306;2024-01-11T17:49:22;45.50;;;42.42;;
81036;SDS011;70521;47.468;19.306;2024-01-11T17:52:23;41.15;;;37.95;;
81036;SDS011;70521;47.468;19.306;2024-01-11T17:55:24;50.70;;;46.10;;
81036;SDS011;70521;47.468;19.306;2024-01-11T18:01:26;39.42;;;35.88;;
81036;SDS011;70521;47.468;19.306;2024-01-11T18:04:28;38.00;;;35.15;;
81036;SDS011;70521;47.468;19.306;2024-01-11T18:07:29;34.83;;;31.95;;
81036;SDS011;70521;47.468;19.306;2024-01-11T18:10:34;51.10;;;47.13;;
81036;SDS011;70521;47.468;19.306;2024-01-11T18:13:36;40.80;;;37.83;;
81036;SDS011;70521;47.468;19.306;2024-01-11T18:16:37;45.83;;;42.15;;
81036;SDS011;70521;47.468;19.306;2024-01-11T18:22:38;50.00;;;46.67;;
81036;SDS011;70521;47.468;19.306;2024-01-11T18:25:40;46.83;;;42.83;;
81036;SDS011;70521;47.468;19.306;2024-01-11T18:28:42;33.65;;;31.23;;
81036;SDS011;70521;47.468;19.306;2024-01-11T18:31:43;40.60;;;37.10;;
81036;SDS011;70521;47.468;19.306;2024-01-11T18:34:45;38.83;;;35.88;;